Time;durP1;ratioP1;P1;durP2;ratioP2;P2;SDS_P1;SDS_P2;PMS_P1;PMS_P2;Temp;Humidity;BMP_temperature;BMP_pressure;BME280_temperature;BME280_humidity;BME280_pressure;Samples;Min_cycle;Max_cycle;Signal;HPM_P1;HPM_P2
2022/10/28 00:02:23;;;;;;;39.08;15.63;;;15.40;99.90;;;;;;5051056;28;20052;-66
2022/10/28 00:05:28;;;;;;;43.92;16.30;;;15.40;99.90;;;;;;5038585;28;20068;-66
2022/10/28 00:08:32;;;;;;;34.45;14.95;;;15.40;99.90;;;;;;5051052;28;20056;-66
2022/10/28 00:11:37;;;;;;;39.20;17.17;;;15.30;99.90;;;;;;5051155;28;20052;-65
2022/10/28 00:14:41;;;;;;;42.47;17.40;;;15.30;99.90;;;;;;5050722;28;20499;-66
2022/10/28 00:17:44;;;;;;;50.45;16.70;;;15.30;99.90;;;;;;5051191;28;20056;-66
2022/10/28 00:20:48;;;;;;;42.00;16.20;;;15.30;99.90;;;;;;5051215;28;20048;-66
2022/10/28 00:23:53;;;;;;;40.42;16.58;;;15.30;99.90;;;;;;5054233;28;20044;-66
2022/10/28 00:26:57;;;;;;;41.70;17.50;;;15.20;99.90;;;;;;5054599;28;20040;-65
2022/10/28 00:30:01;;;;;;;40.03;17.13;;;15.20;99.90;;;;;;5054730;28;20048;-65
2022/10/28 00:33:05;;;;;;;35.85;15.68;;;15.20;99.90;;;;;;5054636;28;20056;-65
2022/10/28 00:36:21;;;;;;;36.17;14.43;;;15.20;99.90;;;;;;5054097;28;20048;-65
2022/10/28 00:39:26;;;;;;;36.08;13.30;;;15.10;99.90;;;;;;5054302;28;20040;-65
2022/10/28 00:42:30;;;;;;;40.97;13.40;;;15.00;99.90;;;;;;5054151;28;20036;-66
2022/10/28 00:45:34;;;;;;;37.22;13.45;;;15.10;99.90;;;;;;5054196;28;20052;-65
2022/10/28 00:48:40;;;;;;;37.83;14.32;;;15.10;99.90;;;;;;5054206;28;20067;-65
2022/10/28 00:51:47;;;;;;;30.63;13.45;;;15.20;99.90;;;;;;5054403;28;20040;-65
2022/10/28 00:54:52;;;;;;;35.33;13.45;;;15.20;99.90;;;;;;5053664;28;20420;-65
2022/10/28 00:57:59;;;;;;;35.30;12.80;;;15.20;99.90;;;;;;5054208;28;20048;-66
2022/10/28 01:01:04;;;;;;;37.08;12.55;;;15.10;99.90;;;;;;5054026;28;20392;-65
2022/10/28 01:04:08;;;;;;;43.35;14.20;;;15.10;99.90;;;;;;5054041;28;20044;-65
2022/10/28 01:07:12;;;;;;;34.28;10.93;;;15.00;99.90;;;;;;5054008;28;20044;-65
2022/10/28 01:10:17;;;;;;;32.80;10.38;;;14.90;99.90;;;;;;5053679;28;20036;-65
2022/10/28 01:13:46;;;;;;;37.47;11.30;;;14.90;99.90;;;;;;5053478;28;20131;-65
2022/10/28 01:16:50;;;;;;;33.13;11.23;;;14.90;99.90;;;;;;5053783;28;20048;-65
2022/10/28 01:20:06;;;;;;;42.03;11.45;;;14.90;99.90;;;;;;5053237;28;20048;-65
2022/10/28 01:23:24;;;;;;;32.10;10.45;;;14.90;99.90;;;;;;5053629;28;20032;-65
2022/10/28 01:26:33;;;;;;;23.08;8.90;;;14.90;99.90;;;;;;5053660;28;20033;-65
2022/10/28 01:30:04;;;;;;;26.83;8.93;;;14.90;99.90;;;;;;5053844;28;20051;-65
2022/10/28 01:33:27;;;;;;;25.95;9.13;;;15.00;99.90;;;;;;5053277;28;20048;-65
2022/10/28 01:36:59;;;;;;;31.75;10.00;;;15.00;99.90;;;;;;5053151;28;20115;-65
2022/10/28 01:40:19;;;;;;;28.02;9.85;;;14.90;99.90;;;;;;5053016;28;20044;-65
2022/10/28 01:43:42;;;;;;;32.70;10.27;;;14.80;99.90;;;;;;5053189;28;20511;-65
2022/10/28 01:46:57;;;;;;;29.50;11.75;;;14.80;99.90;;;;;;5053157;28;20040;-65
2022/10/28 01:50:13;;;;;;;34.28;12.30;;;14.80;99.90;;;;;;5053316;28;20040;-65
2022/10/28 01:53:23;;;;;;;28.02;11.85;;;14.70;99.90;;;;;;5052686;28;20048;-65
2022/10/28 01:56:33;;;;;;;36.67;12.35;;;14.60;99.90;;;;;;5053120;28;20044;-65
2022/10/28 01:59:38;;;;;;;36.88;12.40;;;14.50;99.90;;;;;;5052668;28;20047;-65
2022/10/28 02:02:43;;;;;;;38.00;12.32;;;14.10;99.90;;;;;;5053111;28;20056;-65
2022/10/28 02:05:51;;;;;;;40.60;14.25;;;14.10;99.90;;;;;;5052435;28;20504;-65
2022/10/28 02:09:07;;;;;;;34.53;14.43;;;14.10;99.90;;;;;;5052931;28;20048;-65
2022/10/28 02:12:14;;;;;;;37.80;12.45;;;14.00;99.90;;;;;;5052894;28;20391;-65
2022/10/28 02:15:27;;;;;;;41.00;14.88;;;14.10;99.90;;;;;;5052445;28;20055;-65
2022/10/28 02:18:59;;;;;;;37.28;13.45;;;14.10;99.90;;;;;;5052549;28;20048;-65
2022/10/28 02:22:27;;;;;;;30.83;13.25;;;14.10;99.90;;;;;;5052635;28;20040;-65
2022/10/28 02:25:51;;;;;;;37.70;12.85;;;14.20;99.90;;;;;;5052179;28;20044;-65
2022/10/28 02:28:58;;;;;;;30.67;12.23;;;14.10;99.90;;;;;;5042938;28;20064;-65
2022/10/28 02:32:06;;;;;;;45.40;12.98;;;14.10;99.90;;;;;;5052456;28;20040;-65
2022/10/28 02:35:16;;;;;;;35.35;13.23;;;14.10;99.90;;;;;;5051331;28;20064;-65
2022/10/28 02:38:29;;;;;;;38.25;12.52;;;14.20;99.90;;;;;;5052247;28;20048;-65
2022/10/28 02:41:52;;;;;;;32.60;12.73;;;14.20;99.90;;;;;;5052060;28;20399;-66
2022/10/28 02:45:06;;;;;;;36.88;13.35;;;14.10;99.90;;;;;;5051456;28;20036;-66
2022/10/28 02:48:18;;;;;;;43.97;13.10;;;14.10;99.90;;;;;;5052080;28;20040;-65
2022/10/28 02:51:36;;;;;;;42.95;13.80;;;14.10;99.90;;;;;;5052139;28;20060;-65
2022/10/28 02:54:46;;;;;;;38.03;12.85;;;14.10;99.90;;;;;;5051622;28;20048;-65
2022/10/28 02:57:50;;;;;;;41.78;13.30;;;14.10;99.90;;;;;;5051854;28;20373;-65
2022/10/28 03:00:54;;;;;;;43.35;13.23;;;14.10;99.90;;;;;;5051855;28;20056;-65
2022/10/28 03:03:58;;;;;;;33.45;11.73;;;14.00;99.90;;;;;;5051186;28;20499;-65
2022/10/28 03:07:02;;;;;;;36.67;11.73;;;14.00;99.90;;;;;;5051584;28;20047;-66
2022/10/28 03:10:06;;;;;;;43.58;12.30;;;13.90;99.90;;;;;;5051835;28;20111;-65
2022/10/28 03:13:10;;;;;;;34.15;10.13;;;13.90;99.90;;;;;;5051699;28;20063;-66
2022/10/28 03:16:14;;;;;;;32.25;11.90;;;13.90;99.90;;;;;;5052211;28;20047;-65
2022/10/28 03:19:18;;;;;;;49.58;16.98;;;13.90;99.90;;;;;;5055478;28;20068;-65
2022/10/28 03:22:22;;;;;;;39.40;16.48;;;13.80;99.90;;;;;;5051662;28;20396;-65
2022/10/28 03:25:26;;;;;;;43.00;15.23;;;13.70;99.90;;;;;;5051544;28;20044;-65
2022/10/28 03:28:30;;;;;;;43.83;14.10;;;13.60;99.90;;;;;;5051687;28;20048;-65
2022/10/28 03:31:35;;;;;;;44.03;15.75;;;13.60;99.90;;;;;;5051456;28;20036;-65
2022/10/28 03:34:38;;;;;;;71.90;16.83;;;13.50;99.90;;;;;;5038677;28;20410;-65
2022/10/28 03:37:43;;;;;;;43.17;16.52;;;13.50;99.90;;;;;;5051217;28;20040;-65
2022/10/28 03:40:48;;;;;;;46.97;17.33;;;13.50;99.90;;;;;;5051144;28;20112;-65
2022/10/28 03:43:52;;;;;;;35.65;15.30;;;13.50;99.90;;;;;;5051207;28;20048;-65
2022/10/28 03:46:56;;;;;;;42.95;14.18;;;13.50;99.90;;;;;;5050915;28;20511;-65
2022/10/28 03:50:00;;;;;;;41.50;13.88;;;13.50;99.90;;;;;;5050400;28;20060;-65
2022/10/28 03:53:04;;;;;;;37.30;11.77;;;13.40;99.90;;;;;;5050842;28;20658;-65
2022/10/28 03:56:12;;;;;;;32.28;12.63;;;13.50;99.90;;;;;;5053269;28;20451;-65
2022/10/28 03:59:17;;;;;;;39.10;11.85;;;13.50;99.90;;;;;;5054943;28;20044;-64
2022/10/28 04:02:21;;;;;;;29.20;11.93;;;13.50;99.90;;;;;;5055009;28;20044;-66
2022/10/28 04:05:25;;;;;;;33.58;11.38;;;13.50;99.90;;;;;;5054887;28;20064;-65
2022/10/28 04:08:29;;;;;;;40.05;12.15;;;13.60;99.90;;;;;;5054727;28;20036;-65
2022/10/28 04:11:32;;;;;;;38.00;12.30;;;13.60;99.90;;;;;;5055093;28;20494;-65
2022/10/28 04:14:36;;;;;;;29.48;12.05;;;13.50;99.90;;;;;;5054864;28;20040;-64
2022/10/28 04:17:40;;;;;;;32.17;13.48;;;13.50;99.90;;;;;;5054751;28;20048;-65
2022/10/28 04:20:45;;;;;;;35.33;12.73;;;13.40;99.90;;;;;;5054345;28;20044;-64
2022/10/28 04:23:49;;;;;;;29.67;12.10;;;13.40;99.90;;;;;;5054461;28;20051;-65
2022/10/28 04:26:53;;;;;;;32.03;11.73;;;13.50;99.90;;;;;;5054672;28;20044;-64
2022/10/28 04:29:56;;;;;;;32.20;11.90;;;13.40;99.90;;;;;;5054705;28;20064;-65
2022/10/28 04:33:00;;;;;;;28.50;13.10;;;13.40;99.90;;;;;;5054638;28;20048;-65
2022/10/28 04:36:05;;;;;;;31.73;12.93;;;13.40;99.90;;;;;;5054727;28;20076;-64
2022/10/28 04:39:09;;;;;;;44.17;12.55;;;13.40;99.90;;;;;;5054500;28;20167;-64
2022/10/28 04:42:13;;;;;;;31.60;10.57;;;13.40;99.90;;;;;;5054302;28;20040;-64
2022/10/28 04:45:17;;;;;;;39.70;13.82;;;13.40;99.90;;;;;;5054183;28;20040;-64
2022/10/28 04:48:21;;;;;;;41.83;16.20;;;13.40;99.90;;;;;;5054503;28;20040;-65
2022/10/28 04:51:26;;;;;;;51.28;17.45;;;13.50;99.90;;;;;;5054414;28;20056;-64
2022/10/28 04:54:30;;;;;;;45.25;19.17;;;13.50;99.90;;;;;;5054026;28;20515;-64
2022/10/28 04:57:33;;;;;;;37.70;15.50;;;14.20;99.90;;;;;;5054012;28;20402;-65
2022/10/28 05:00:38;;;;;;;30.55;13.00;;;13.50;99.90;;;;;;5053646;28;20040;-64
2022/10/28 05:03:41;;;;;;;27.50;12.43;;;13.20;99.90;;;;;;5053871;28;20052;-64
2022/10/28 05:06:45;;;;;;;32.60;11.95;;;13.10;99.90;;;;;;5053752;28;20487;-64
2022/10/28 05:09:49;;;;;;;32.30;11.82;;;13.00;99.90;;;;;;5054259;28;20056;-64
2022/10/28 05:12:54;;;;;;;32.70;12.38;;;13.00;99.90;;;;;;5054407;28;20217;-64
2022/10/28 05:15:57;;;;;;;27.38;12.02;;;13.00;99.90;;;;;;5053852;28;20044;-64
2022/10/28 05:19:01;;;;;;;36.10;14.15;;;13.00;99.90;;;;;;5053454;28;20059;-64
2022/10/28 05:22:05;;;;;;;39.75;15.70;;;13.10;99.90;;;;;;5053868;28;20048;-64
2022/10/28 05:25:09;;;;;;;33.25;12.90;;;13.10;99.90;;;;;;5053243;28;20044;-65
2022/10/28 05:28:13;;;;;;;37.05;14.45;;;13.00;99.90;;;;;;5053497;28;20044;-65
2022/10/28 05:31:17;;;;;;;32.78;13.07;;;13.00;99.90;;;;;;5053638;28;20052;-64
2022/10/28 05:34:22;;;;;;;41.08;15.05;;;13.00;99.90;;;;;;5053003;28;20052;-64
2022/10/28 05:37:26;;;;;;;55.85;17.48;;;12.90;99.90;;;;;;5053148;28;20048;-64
2022/10/28 05:40:34;;;;;;;48.50;21.15;;;12.90;99.90;;;;;;5053190;28;20048;-64
2022/10/28 05:43:37;;;;;;;46.65;20.70;;;13.00;99.90;;;;;;5053040;28;20507;-65
2022/10/28 05:46:42;;;;;;;42.50;18.40;;;13.10;99.90;;;;;;5053040;28;20392;-64
2022/10/28 05:49:45;;;;;;;45.88;21.02;;;13.10;99.90;;;;;;5052966;28;20538;-64
2022/10/28 05:52:53;;;;;;;57.38;20.35;;;13.20;99.90;;;;;;5053152;28;20036;-64
2022/10/28 05:55:57;;;;;;;39.92;17.65;;;13.20;99.90;;;;;;5051074;28;20973;-64
2022/10/28 05:59:00;;;;;;;44.92;17.50;;;13.30;99.90;;;;;;5043485;28;20052;-65
2022/10/28 06:02:05;;;;;;;40.97;17.52;;;13.40;99.90;;;;;;5043003;28;20060;-65
2022/10/28 06:05:10;;;;;;;36.78;16.13;;;13.40;99.90;;;;;;5045649;28;20514;-65
2022/10/28 06:08:14;;;;;;;43.22;15.60;;;13.40;99.90;;;;;;5052670;28;20035;-65
2022/10/28 06:11:17;;;;;;;34.40;14.32;;;13.50;99.90;;;;;;5052536;28;20047;-65
2022/10/28 06:14:21;;;;;;;36.75;15.15;;;13.50;99.90;;;;;;5032183;28;20060;-65
2022/10/28 06:17:26;;;;;;;53.50;14.70;;;13.60;99.90;;;;;;5020022;28;20036;-65
2022/10/28 06:20:30;;;;;;;39.17;13.95;;;13.80;99.90;;;;;;5031735;28;20400;-65
2022/10/28 06:23:33;;;;;;;40.08;12.98;;;14.20;99.90;;;;;;5032741;28;20061;-65
2022/10/28 06:26:37;;;;;;;30.65;12.00;;;15.60;99.90;;;;;;5032449;28;20117;-65
2022/10/28 06:29:41;;;;;;;25.50;9.80;;;17.10;99.90;;;;;;5041609;28;20550;-65
2022/10/28 06:32:45;;;;;;;24.55;9.20;;;18.60;99.90;;;;;;5047263;28;20411;-65
2022/10/28 06:35:49;;;;;;;31.08;9.18;;;20.10;99.90;;;;;;5045067;28;20060;-66
2022/10/28 06:38:53;;;;;;;28.90;8.70;;;22.70;99.90;;;;;;5047279;28;20399;-66
2022/10/28 06:41:57;;;;;;;18.20;7.20;;;22.70;99.90;;;;;;5041701;28;20045;-66
2022/10/28 06:45:01;;;;;;;30.25;9.00;;;23.70;99.90;;;;;;5048680;28;20507;-65
2022/10/28 06:48:06;;;;;;;30.73;8.77;;;24.20;99.90;;;;;;5047650;28;20060;-65
2022/10/28 06:51:10;;;;;;;26.90;8.13;;;24.90;99.90;;;;;;5041757;28;20381;-65
2022/10/28 06:54:14;;;;;;;23.63;7.78;;;25.80;99.90;;;;;;5043643;28;20490;-65
2022/10/28 06:57:18;;;;;;;30.00;7.38;;;26.30;99.90;;;;;;5051721;28;20391;-66
2022/10/28 07:00:22;;;;;;;15.38;6.85;;;26.20;99.90;;;;;;5037644;28;20151;-66
2022/10/28 07:03:26;;;;;;;16.70;6.75;;;27.00;99.90;;;;;;5049287;28;20044;-65
2022/10/28 07:06:30;;;;;;;18.35;6.97;;;27.40;99.90;;;;;;5031661;28;20036;-66
2022/10/28 07:09:38;;;;;;;17.40;7.00;;;27.70;99.90;;;;;;5044414;28;20466;-66
2022/10/28 07:12:42;;;;;;;18.75;7.35;;;27.90;99.70;;;;;;5051385;28;20043;-64
2022/10/28 07:15:51;;;;;;;15.95;6.25;;;28.20;99.50;;;;;;5031583;28;20044;-66
2022/10/28 07:18:55;;;;;;;19.15;7.03;;;28.50;99.40;;;;;;5040800;28;20036;-66
2022/10/28 07:21:59;;;;;;;16.60;6.82;;;29.20;98.50;;;;;;5041138;28;20381;-66
2022/10/28 07:25:03;;;;;;;14.57;6.95;;;25.40;99.90;;;;;;5048909;28;20052;-66
2022/10/28 07:28:08;;;;;;;10.45;5.03;;;25.30;99.90;;;;;;5048935;28;20032;-66
2022/10/28 07:31:11;;;;;;;12.98;6.07;;;25.40;99.90;;;;;;5045354;28;20491;-65
2022/10/28 07:34:16;;;;;;;16.63;6.22;;;27.10;99.70;;;;;;5046973;28;20048;-66
2022/10/28 07:37:20;;;;;;;15.27;6.00;;;27.90;99.20;;;;;;5038711;28;20060;-66
2022/10/28 07:40:24;;;;;;;16.27;6.03;;;29.10;98.00;;;;;;5046539;28;20044;-66
2022/10/28 07:43:30;;;;;;;23.92;8.57;;;30.50;96.80;;;;;;5045705;28;20043;-65
2022/10/28 07:46:35;;;;;;;21.73;9.80;;;30.90;96.90;;;;;;5046708;28;20041;-66
2022/10/28 07:49:38;;;;;;;17.10;9.23;;;32.00;95.70;;;;;;5045999;28;20036;-67
2022/10/28 07:52:43;;;;;;;18.98;7.82;;;33.20;94.40;;;;;;5041009;28;20044;-66
2022/10/28 07:55:58;;;;;;;25.10;8.95;;;33.50;94.10;;;;;;5042861;28;20408;-67
2022/10/28 07:59:02;;;;;;;23.63;7.05;;;33.90;93.30;;;;;;5047690;28;20044;-67
2022/10/28 08:02:09;;;;;;;18.02;6.82;;;34.50;92.40;;;;;;5051086;28;20048;-66
2022/10/28 08:05:13;;;;;;;15.18;6.38;;;34.70;92.00;;;;;;5051243;28;20048;-66
2022/10/28 08:08:17;;;;;;;15.27;6.43;;;30.70;92.60;;;;;;5051063;28;20048;-66
2022/10/28 08:11:22;;;;;;;13.88;6.57;;;30.60;92.90;;;;;;5050982;28;20044;-66
2022/10/28 08:14:26;;;;;;;15.93;6.88;;;29.30;94.30;;;;;;5050761;28;20044;-66
2022/10/28 08:17:30;;;;;;;9.85;5.65;;;30.10;94.30;;;;;;5050977;28;20055;-66
2022/10/28 08:20:34;;;;;;;15.30;6.10;;;31.20;94.00;;;;;;5038605;28;20063;-67
2022/10/28 08:23:40;;;;;;;8.68;5.25;;;32.30;93.10;;;;;;5050870;28;20051;-66
2022/10/28 08:26:43;;;;;;;10.23;5.20;;;33.20;92.40;;;;;;5051002;28;20052;-67
2022/10/28 08:29:47;;;;;;;11.88;4.90;;;32.90;92.10;;;;;;5051112;28;20048;-67
2022/10/28 08:32:54;;;;;;;13.93;5.07;;;33.20;92.00;;;;;;5050684;28;20044;-67
2022/10/28 08:35:58;;;;;;;9.15;4.60;;;34.10;91.60;;;;;;5051025;28;20047;-66
2022/10/28 08:39:02;;;;;;;11.63;4.18;;;33.70;91.40;;;;;;5050890;28;20064;-67
2022/10/28 08:42:30;;;;;;;10.52;3.67;;;32.60;91.60;;;;;;5051599;28;20068;-66
2022/10/28 08:46:06;;;;;;;4.85;3.40;;;30.90;92.70;;;;;;5053991;28;20342;-66
2022/10/28 08:49:15;;;;;;;7.68;3.58;;;30.50;93.00;;;;;;5057194;28;20386;-67
2022/10/28 08:52:27;;;;;;;5.53;3.55;;;31.30;93.10;;;;;;5054467;28;20044;-66
2022/10/28 08:55:44;;;;;;;8.50;3.28;;;32.20;92.10;;;;;;5054308;28;20396;-67
2022/10/28 08:58:53;;;;;;;7.50;3.20;;;31.10;92.50;;;;;;5054277;28;20032;-67
2022/10/28 09:02:10;;;;;;;5.53;2.80;;;31.70;92.60;;;;;;5054113;28;20040;-67
2022/10/28 09:05:25;;;;;;;6.35;2.50;;;32.80;91.90;;;;;;5054087;28;20380;-66
2022/10/28 09:08:32;;;;;;;5.93;2.70;;;32.80;91.50;;;;;;5053798;28;20806;-67
2022/10/28 09:12:16;;;;;;;8.93;3.33;;;32.80;91.80;;;;;;5054153;28;20048;-67
2022/10/28 09:15:21;;;;;;;5.82;3.55;;;32.70;91.30;;;;;;5046396;28;20059;-66
2022/10/28 09:18:51;;;;;;;10.50;3.50;;;33.10;91.40;;;;;;5053928;28;20040;-67
2022/10/28 09:22:13;;;;;;;6.82;3.42;;;33.90;91.30;;;;;;5053536;28;20048;-68
2022/10/28 09:25:29;;;;;;;7.38;3.60;;;35.00;90.70;;;;;;5053423;28;20040;-67
2022/10/28 09:28:48;;;;;;;11.27;4.38;;;36.80;90.00;;;;;;5053579;28;20052;-67
2022/10/28 09:32:36;;;;;;;10.95;4.18;;;34.00;90.00;;;;;;5053744;28;20059;-67
2022/10/28 09:35:43;;;;;;;12.07;4.95;;;32.80;92.00;;;;;;4991731;28;20394;-66
2022/10/28 09:38:52;;;;;;;13.65;5.30;;;29.70;93.10;;;;;;4994079;28;20084;-66
2022/10/28 09:41:59;;;;;;;11.55;5.57;;;29.50;93.70;;;;;;5052941;28;20044;-66
2022/10/28 09:45:11;;;;;;;11.45;5.32;;;29.60;94.00;;;;;;5053207;28;20060;-67
2022/10/28 09:48:35;;;;;;;8.52;4.30;;;31.20;93.50;;;;;;5052653;28;20036;-68
2022/10/28 09:52:02;;;;;;;14.27;5.32;;;32.50;92.60;;;;;;5053304;28;20388;-68
2022/10/28 09:55:17;;;;;;;16.77;5.07;;;35.00;91.00;;;;;;5052834;28;20052;-67
2022/10/28 09:58:22;;;;;;;20.40;6.82;;;36.30;90.50;;;;;;5052840;28;20399;-66
2022/10/28 10:01:32;;;;;;;21.20;7.30;;;35.50;88.00;;;;;;5040603;28;20048;-67
2022/10/28 10:04:36;;;;;;;13.18;5.60;;;33.20;90.90;;;;;;5053023;28;20040;-67
2022/10/28 10:07:47;;;;;;;26.52;6.13;;;36.20;89.70;;;;;;5053005;28;20048;-67
2022/10/28 10:11:10;;;;;;;20.33;5.72;;;38.10;87.30;;;;;;5052766;28;20112;-67
2022/10/28 10:14:20;;;;;;;19.80;5.72;;;38.60;85.10;;;;;;5052615;28;20040;-67
2022/10/28 10:17:44;;;;;;;21.35;5.85;;;39.60;83.80;;;;;;5052737;28;20048;-66
2022/10/28 10:20:54;;;;;;;18.08;5.72;;;37.00;85.60;;;;;;5050920;28;20048;-67
2022/10/28 10:23:58;;;;;;;16.55;5.88;;;34.80;87.70;;;;;;5043685;28;20372;-67
2022/10/28 10:27:08;;;;;;;15.60;4.88;;;35.90;87.20;;;;;;5044684;28;20056;-67
2022/10/28 10:30:15;;;;;;;;;;;37.40;85.80;;;;;;5048779;28;20045;-67
2022/10/28 10:33:27;;;;;;;15.30;5.28;;;38.20;85.40;;;;;;5040100;28;19912;-66
2022/10/28 10:36:33;;;;;;;15.95;5.38;;;39.10;83.50;;;;;;5049004;28;20388;-67
2022/10/28 10:39:38;;;;;;;15.77;5.65;;;39.50;83.20;;;;;;5041228;28;20589;-67
2022/10/28 10:42:42;;;;;;;15.73;5.82;;;38.70;83.30;;;;;;5048701;28;20072;-67
2022/10/28 10:46:11;;;;;;;17.25;5.80;;;40.10;82.10;;;;;;5041280;28;20039;-67
2022/10/28 10:49:15;;;;;;;18.63;5.95;;;41.60;79.50;;;;;;5047712;28;20360;-67
2022/10/28 10:52:23;;;;;;;15.02;5.30;;;42.50;78.30;;;;;;5051341;28;20055;-67
2022/10/28 10:55:37;;;;;;;15.07;6.18;;;42.90;76.40;;;;;;5048443;28;20787;-67
2022/10/28 10:58:52;;;;;;;19.58;6.30;;;43.20;75.60;;;;;;5041705;28;20518;-67
2022/10/28 11:01:57;;;;;;;22.50;5.90;;;40.90;73.40;;;;;;5046430;28;20040;-67
2022/10/28 11:05:06;;;;;;;20.25;5.82;;;39.30;77.20;;;;;;5035062;28;20488;-67
2022/10/28 11:08:33;;;;;;;22.67;5.55;;;38.70;74.60;;;;;;5048742;28;20498;-66
2022/10/28 11:11:39;;;;;;;20.73;6.00;;;39.40;74.70;;;;;;5032698;28;20053;-67
2022/10/28 11:14:57;;;;;;;15.60;6.00;;;40.30;75.40;;;;;;5031308;28;20445;-67
2022/10/28 11:18:10;;;;;;;17.75;6.47;;;40.50;75.00;;;;;;5047741;28;20043;-67
2022/10/28 11:21:32;;;;;;;24.50;6.40;;;38.70;76.20;;;;;;5040642;28;20055;-67
2022/10/28 11:25:17;;;;;;;15.85;5.45;;;39.80;76.10;;;;;;5047051;28;20368;-67
2022/10/28 11:28:35;;;;;;;14.18;5.38;;;41.20;74.30;;;;;;5044724;28;20057;-67
2022/10/28 11:31:55;;;;;;;18.67;5.75;;;38.90;73.90;;;;;;5040522;28;20043;-67
2022/10/28 11:35:14;;;;;;;22.90;5.63;;;38.30;75.80;;;;;;5041312;28;20048;-68
2022/10/28 11:38:41;;;;;;;22.98;5.28;;;38.60;76.30;;;;;;5041862;28;20047;-67
2022/10/28 11:41:47;;;;;;;16.60;5.18;;;38.60;76.30;;;;;;5044389;28;20040;-67
2022/10/28 11:45:03;;;;;;;20.10;4.85;;;38.30;76.90;;;;;;5043953;28;20040;-68
2022/10/28 11:48:32;;;;;;;16.52;5.82;;;38.30;76.40;;;;;;5046553;28;20484;-68
2022/10/28 11:51:53;;;;;;;18.45;4.85;;;38.80;76.00;;;;;;5042398;28;20391;-68
2022/10/28 11:55:06;;;;;;;17.13;5.40;;;39.40;75.50;;;;;;5044551;28;20530;-67
2022/10/28 11:58:32;;;;;;;16.77;4.30;;;39.10;75.50;;;;;;5048664;28;20056;-67
2022/10/28 12:02:14;;;;;;;18.27;5.00;;;39.60;75.50;;;;;;5041923;28;20041;-68
2022/10/28 12:05:24;;;;;;;15.73;4.80;;;40.10;72.60;;;;;;5029026;28;20048;-68
2022/10/28 12:09:03;;;;;;;13.55;5.35;;;39.10;72.90;;;;;;5043478;28;20040;-68
2022/10/28 12:12:38;;;;;;;17.23;4.50;;;40.30;74.10;;;;;;5033209;28;20496;-68
2022/10/28 12:16:00;;;;;;;18.45;4.95;;;38.30;73.80;;;;;;5039610;28;20040;-68
2022/10/28 12:19:21;;;;;;;9.88;4.30;;;37.20;75.50;;;;;;5051324;28;20408;-67
2022/10/28 12:22:44;;;;;;;19.42;4.80;;;38.60;74.80;;;;;;5049992;28;20036;-67
2022/10/28 12:25:53;;;;;;;14.82;4.60;;;40.00;74.00;;;;;;5041856;28;20036;-68
2022/10/28 12:29:02;;;;;;;16.15;4.43;;;39.80;73.00;;;;;;5037159;28;20040;-68
2022/10/28 12:32:09;;;;;;;18.70;4.32;;;40.90;71.70;;;;;;5044693;28;20045;-67
2022/10/28 12:35:17;;;;;;;18.25;4.47;;;41.10;71.70;;;;;;5049890;28;20065;-68
2022/10/28 12:38:44;;;;;;;15.20;4.68;;;40.20;72.10;;;;;;5039873;28;20503;-68
2022/10/28 12:42:13;;;;;;;17.70;4.78;;;39.40;71.40;;;;;;5045320;28;20032;-68
2022/10/28 12:45:20;;;;;;;16.30;4.60;;;40.10;71.30;;;;;;5043187;28;20100;-67
2022/10/28 12:48:32;;;;;;;16.45;4.47;;;39.90;71.50;;;;;;5049532;28;20060;-67
2022/10/28 12:51:39;;;;;;;13.18;4.00;;;40.80;71.50;;;;;;5042624;28;20040;-67
2022/10/28 12:55:08;;;;;;;14.52;4.50;;;40.90;71.30;;;;;;5048577;28;20052;-68
2022/10/28 12:58:31;;;;;;;11.30;3.55;;;41.60;70.60;;;;;;5042679;28;20156;-67
2022/10/28 13:01:35;;;;;;;16.65;4.75;;;41.20;70.10;;;;;;5044190;28;20044;-67
2022/10/28 13:04:40;;;;;;;18.40;4.60;;;39.80;70.40;;;;;;5044011;28;20488;-67
2022/10/28 13:07:57;;;;;;;16.98;4.63;;;40.30;70.50;;;;;;5044490;28;20064;-68
2022/10/28 13:11:19;;;;;;;12.77;4.55;;;41.00;70.00;;;;;;5043060;28;20036;-67
2022/10/28 13:14:46;;;;;;;15.25;5.03;;;41.50;69.60;;;;;;5043435;28;20081;-67
2022/10/28 13:18:04;;;;;;;17.83;4.88;;;40.70;68.70;;;;;;5034916;28;20048;-67
2022/10/28 13:21:23;;;;;;;17.58;5.60;;;39.20;70.20;;;;;;5046562;28;21308;-67
2022/10/28 13:24:35;;;;;;;19.27;4.53;;;37.20;71.50;;;;;;5046975;28;20037;-68
2022/10/28 13:27:39;;;;;;;23.00;5.05;;;38.00;71.50;;;;;;5046886;28;20363;-68
2022/10/28 13:30:56;;;;;;;17.33;4.95;;;37.30;71.00;;;;;;5041478;28;20048;-67
2022/10/28 13:34:00;;;;;;;18.85;4.75;;;37.20;72.30;;;;;;5049190;28;20048;-67
2022/10/28 13:37:15;;;;;;;16.50;5.18;;;37.80;71.80;;;;;;5048284;28;20041;-68
2022/10/28 13:40:40;;;;;;;20.15;4.50;;;38.00;71.50;;;;;;5045866;28;20048;-67
2022/10/28 13:43:50;;;;;;;15.32;4.57;;;36.50;73.10;;;;;;5020502;28;20040;-68
2022/10/28 13:47:03;;;;;;;19.40;4.55;;;36.70;73.30;;;;;;5034197;28;20503;-67
2022/10/28 13:50:13;;;;;;;13.45;5.07;;;35.50;74.00;;;;;;5047155;28;20419;-67
2022/10/28 13:53:23;;;;;;;19.80;5.65;;;34.70;74.60;;;;;;5045150;28;20499;-67
2022/10/28 13:56:27;;;;;;;16.33;5.20;;;34.20;74.80;;;;;;5047529;28;20040;-67
2022/10/28 13:59:50;;;;;;;29.30;5.18;;;33.50;76.00;;;;;;5050016;28;20282;-67
2022/10/28 14:02:59;;;;;;;32.65;6.00;;;32.90;78.20;;;;;;5042099;28;20068;-67
2022/10/28 14:06:04;;;;;;;22.35;5.43;;;32.50;79.70;;;;;;5047709;28;20044;-67
2022/10/28 14:09:20;;;;;;;18.10;5.60;;;32.10;80.60;;;;;;5046387;28;20032;-67
2022/10/28 14:12:30;;;;;;;16.88;5.25;;;31.70;81.00;;;;;;5048019;28;20044;-67
2022/10/28 14:15:38;;;;;;;17.77;5.63;;;31.70;81.00;;;;;;5045406;28;20049;-66
2022/10/28 14:18:50;;;;;;;17.55;5.38;;;31.70;80.90;;;;;;5043511;28;20040;-67
2022/10/28 14:22:06;;;;;;;17.13;5.03;;;32.30;81.10;;;;;;5049476;28;20048;-67
2022/10/28 14:25:57;;;;;;;21.10;5.80;;;32.20;82.10;;;;;;5042260;28;20036;-66
2022/10/28 14:29:22;;;;;;;19.33;5.43;;;32.50;81.00;;;;;;5034906;28;20039;-67
2022/10/28 14:32:32;;;;;;;20.85;5.95;;;32.80;81.20;;;;;;5047696;28;20044;-66
2022/10/28 14:35:43;;;;;;;20.60;5.03;;;32.90;81.40;;;;;;5040023;28;20043;-67
2022/10/28 14:39:12;;;;;;;15.25;5.15;;;32.60;81.10;;;;;;5037095;28;20048;-67
2022/10/28 14:42:53;;;;;;;14.02;4.93;;;32.40;81.50;;;;;;5050610;28;20028;-66
2022/10/28 14:46:24;;;;;;;12.63;4.47;;;32.10;81.20;;;;;;5033294;28;20056;-66
2022/10/28 14:49:31;;;;;;;17.70;5.65;;;31.50;82.10;;;;;;5050512;28;20099;-66
2022/10/28 14:52:36;;;;;;;21.02;5.07;;;31.20;83.50;;;;;;5047583;28;20040;-66
2022/10/28 14:55:50;;;;;;;17.20;5.38;;;31.20;83.50;;;;;;5048578;28;20040;-66
2022/10/28 14:58:58;;;;;;;22.90;5.47;;;31.10;84.00;;;;;;5044454;28;20043;-67
2022/10/28 15:02:14;;;;;;;20.65;5.82;;;31.20;84.00;;;;;;5045848;28;20039;-67
2022/10/28 15:05:25;;;;;;;19.77;5.57;;;31.60;83.90;;;;;;5043684;28;20040;-67
2022/10/28 15:08:28;;;;;;;16.23;5.70;;;31.50;84.20;;;;;;5036581;28;20040;-66
2022/10/28 15:11:33;;;;;;;20.25;5.93;;;31.50;84.70;;;;;;5048158;28;20268;-66
2022/10/28 15:14:44;;;;;;;20.58;5.40;;;31.30;84.70;;;;;;5048268;28;20036;-66
2022/10/28 15:17:49;;;;;;;14.90;5.35;;;31.30;84.90;;;;;;5047293;28;20107;-67
2022/10/28 15:21:16;;;;;;;19.60;5.53;;;31.10;84.80;;;;;;5046654;28;20040;-66
2022/10/28 15:24:20;;;;;;;14.35;5.45;;;30.40;86.20;;;;;;5048970;28;20044;-66
2022/10/28 15:27:27;;;;;;;18.13;6.60;;;29.90;86.60;;;;;;5031721;28;20052;-66
2022/10/28 15:30:33;;;;;;;21.98;6.07;;;29.40;87.20;;;;;;5041141;28;20593;-66
2022/10/28 15:33:39;;;;;;;17.38;6.15;;;29.00;88.90;;;;;;5041416;28;20043;-66
2022/10/28 15:36:48;;;;;;;32.40;6.95;;;28.60;90.40;;;;;;5041746;28;20499;-66
2022/10/28 15:40:09;;;;;;;22.88;7.15;;;28.20;91.20;;;;;;5047632;28;20036;-66
2022/10/28 15:43:25;;;;;;;22.77;6.55;;;27.90;91.50;;;;;;5049052;28;20061;-66
2022/10/28 15:46:32;;;;;;;26.13;6.55;;;27.50;91.90;;;;;;5045461;28;20044;-66
2022/10/28 15:49:38;;;;;;;17.95;6.25;;;27.20;92.10;;;;;;5045263;28;20392;-66
2022/10/28 15:52:51;;;;;;;25.10;9.05;;;26.80;92.50;;;;;;5042231;28;20056;-66
2022/10/28 15:56:14;;;;;;;27.95;8.38;;;26.50;93.80;;;;;;5035153;28;20041;-67
2022/10/28 15:59:20;;;;;;;35.95;8.25;;;25.80;95.00;;;;;;5035305;28;20048;-68
2022/10/28 16:02:41;;;;;;;21.40;6.55;;;25.20;95.80;;;;;;5035363;28;20049;-68
2022/10/28 16:05:45;;;;;;;22.40;6.13;;;24.60;96.80;;;;;;5035443;28;20036;-68
2022/10/28 16:09:24;;;;;;;18.67;7.40;;;24.00;97.20;;;;;;5035542;28;20052;-67
2022/10/28 16:12:28;;;;;;;23.80;6.50;;;23.50;98.50;;;;;;5035591;28;20048;-68
2022/10/28 16:15:32;;;;;;;18.48;6.85;;;23.00;98.70;;;;;;5034903;28;20503;-67